createdAt,value
2022-10-18T00:00:33.761Z,2.85
2022-10-18T00:01:45.261Z,2.83
2022-10-18T00:02:56.828Z,2.65
2022-10-18T00:04:08.737Z,3.00
2022-10-18T00:05:20.233Z,2.60
2022-10-18T00:06:31.672Z,2.58
2022-10-18T00:07:43.120Z,2.72
2022-10-18T00:08:54.660Z,2.78
2022-10-18T00:10:08.692Z,2.58
2022-10-18T00:11:22.924Z,2.63
2022-10-18T00:12:35.456Z,2.75
2022-10-18T00:13:46.925Z,3.58
2022-10-18T00:14:58.404Z,2.40
2022-10-18T00:16:12.279Z,2.85
2022-10-18T00:17:23.753Z,3.42
2022-10-18T00:18:35.274Z,2.63
2022-10-18T00:19:46.731Z,2.50
2022-10-18T00:21:02.179Z,2.70
2022-10-18T00:22:13.669Z,3.28
2022-10-18T00:23:25.693Z,2.78
2022-10-18T00:24:37.143Z,3.45
2022-10-18T00:25:48.593Z,2.65
2022-10-18T00:27:00.033Z,2.72
2022-10-18T00:28:11.515Z,2.97
2022-10-18T00:29:22.993Z,2.92
2022-10-18T00:30:34.432Z,2.63
2022-10-18T00:31:45.903Z,2.95
2022-10-18T00:32:57.356Z,2.30
2022-10-18T00:34:13.169Z,3.08
2022-10-18T00:35:24.717Z,2.45
2022-10-18T00:36:36.218Z,2.47
2022-10-18T00:37:47.663Z,2.70
2022-10-18T00:38:59.122Z,3.17
2022-10-18T00:40:10.918Z,2.75
2022-10-18T00:41:26.492Z,1.98
2022-10-18T00:42:38.074Z,2.35
2022-10-18T00:43:58.413Z,2.38
2022-10-18T00:45:18.064Z,2.00
2022-10-18T00:46:30.769Z,1.83
2022-10-18T00:47:43.925Z,3.00
2022-10-18T00:48:56.188Z,2.22
2022-10-18T00:50:08.208Z,2.30
2022-10-18T00:51:20.845Z,2.80
2022-10-18T00:52:37.735Z,2.25
2022-10-18T00:53:49.548Z,2.42
2022-10-18T00:55:01.157Z,2.60
2022-10-18T00:56:13.372Z,2.55
2022-10-18T00:57:25.815Z,1.77
2022-10-18T00:58:37.308Z,2.85
2022-10-18T00:59:48.947Z,1.83
2022-10-18T01:01:00.409Z,2.53
2022-10-18T01:02:14.971Z,1.98
2022-10-18T01:03:26.514Z,2.70
2022-10-18T01:04:38.084Z,3.13
2022-10-18T01:05:49.659Z,1.98
2022-10-18T01:07:10.644Z,2.38
2022-10-18T01:08:28.537Z,2.15
2022-10-18T01:09:43.612Z,2.03
2022-10-18T01:10:55.182Z,3.03
2022-10-18T01:12:17.508Z,2.40
2022-10-18T01:13:28.915Z,2.80
2022-10-18T01:14:49.787Z,2.75
2022-10-18T01:16:16.377Z,2.58
2022-10-18T01:17:35.844Z,2.30
2022-10-18T01:18:52.335Z,1.88
2022-10-18T01:20:29.921Z,2.15
2022-10-18T01:21:52.024Z,2.10
2022-10-18T01:23:10.520Z,2.00
2022-10-18T01:24:40.184Z,2.00
2022-10-18T01:26:03.304Z,2.42
2022-10-18T01:27:17.676Z,2.00
2022-10-18T01:28:32.135Z,2.08
2022-10-18T01:29:55.591Z,1.75
2022-10-18T01:31:10.673Z,2.28
2022-10-18T01:32:25.413Z,1.75
2022-10-18T01:33:41.966Z,1.80
2022-10-18T01:34:56.043Z,1.55
2022-10-18T01:36:18.740Z,1.77
2022-10-18T01:37:31.692Z,1.83
2022-10-18T01:38:43.890Z,2.28
2022-10-18T01:39:55.946Z,2.55
2022-10-18T01:41:13.184Z,1.30
2022-10-18T01:42:27.656Z,2.03
2022-10-18T01:43:40.461Z,2.25
2022-10-18T01:44:52.730Z,2.15
2022-10-18T01:46:04.677Z,1.90
2022-10-18T01:47:16.790Z,1.80
2022-10-18T01:48:29.592Z,2.03
2022-10-18T01:49:41.161Z,1.88
2022-10-18T01:50:53.420Z,2.35
2022-10-18T01:52:05.090Z,1.90
2022-10-18T01:53:27.490Z,1.80
2022-10-18T01:54:39.904Z,1.90
2022-10-18T01:55:56.680Z,2.80
2022-10-18T01:57:17.031Z,2.03
2022-10-18T01:58:35.623Z,2.08
2022-10-18T01:59:47.072Z,1.95
2022-10-18T02:01:06.689Z,2.20
2022-10-18T02:02:21.539Z,2.15
2022-10-18T02:03:34.930Z,1.67
2022-10-18T02:04:53.753Z,2.05
2022-10-18T02:06:22.654Z,1.67
2022-10-18T02:07:36.671Z,2.83
2022-10-18T02:08:54.335Z,2.10
2022-10-18T02:10:09.881Z,2.55
2022-10-18T02:11:21.417Z,1.95
2022-10-18T02:12:33.759Z,2.20
2022-10-18T02:13:45.281Z,2.50
2022-10-18T02:14:57.590Z,2.15
2022-10-18T02:16:21.634Z,2.50
2022-10-18T02:17:33.267Z,2.40
2022-10-18T02:18:47.661Z,2.00
2022-10-18T02:20:00.074Z,2.17
2022-10-18T02:21:13.572Z,1.95
2022-10-18T02:22:26.931Z,1.80
2022-10-18T02:23:38.627Z,2.00
2022-10-18T02:24:52.093Z,1.90
2022-10-18T02:26:03.999Z,1.90
2022-10-18T02:27:15.584Z,2.25
2022-10-18T02:28:27.171Z,2.28
2022-10-18T02:29:39.429Z,1.92
2022-10-18T02:30:53.180Z,1.70
2022-10-18T02:32:09.535Z,1.80
2022-10-18T02:33:32.023Z,1.58
2022-10-18T02:34:47.011Z,2.20
2022-10-18T02:36:02.774Z,2.15
2022-10-18T02:37:15.455Z,1.90
2022-10-18T02:38:27.087Z,1.85
2022-10-18T02:39:42.622Z,1.70
2022-10-18T02:40:54.062Z,1.98
2022-10-18T02:42:08.898Z,2.22
2022-10-18T02:43:20.345Z,2.25
2022-10-18T02:44:31.775Z,2.35
2022-10-18T02:45:43.435Z,2.38
2022-10-18T02:46:55.416Z,1.88
2022-10-18T02:48:07.055Z,2.83
2022-10-18T02:49:18.503Z,1.98
2022-10-18T02:50:29.950Z,2.53
2022-10-18T02:51:41.392Z,1.98
2022-10-18T02:52:52.951Z,2.58
2022-10-18T02:54:04.982Z,1.92
2022-10-18T02:55:16.478Z,2.58
2022-10-18T02:56:27.928Z,2.17
2022-10-18T02:57:39.473Z,3.30
2022-10-18T02:58:50.954Z,2.33
2022-10-18T03:00:02.900Z,3.72
2022-10-18T03:01:14.377Z,2.40
2022-10-18T03:02:26.313Z,2.80
2022-10-18T03:03:37.737Z,4.00
2022-10-18T03:04:49.365Z,3.45
2022-10-18T03:06:00.805Z,3.28
2022-10-18T03:07:12.274Z,3.05
2022-10-18T03:08:23.730Z,2.90
2022-10-18T03:09:35.270Z,2.20
2022-10-18T03:10:47.040Z,2.08
2022-10-18T03:11:59.412Z,2.45
2022-10-18T03:13:10.868Z,3.00
2022-10-18T03:14:22.372Z,2.53
2022-10-18T03:15:33.804Z,2.70
2022-10-18T03:16:45.265Z,2.80
2022-10-18T03:17:56.737Z,1.85
2022-10-18T03:19:08.191Z,1.88
2022-10-18T03:20:19.956Z,2.28
2022-10-18T03:21:31.413Z,2.22
2022-10-18T03:22:42.858Z,2.13
2022-10-18T03:23:54.337Z,2.83
2022-10-18T03:25:05.861Z,1.63
2022-10-18T03:26:17.302Z,2.28
2022-10-18T03:27:28.911Z,2.13
2022-10-18T03:28:40.602Z,2.28
2022-10-18T03:29:52.264Z,2.47
2022-10-18T03:31:04.284Z,2.13
2022-10-18T03:32:15.715Z,1.95
2022-10-18T03:33:27.201Z,2.50
2022-10-18T03:34:38.612Z,2.15
2022-10-18T03:35:50.092Z,2.00
2022-10-18T03:37:04.655Z,1.90
2022-10-18T03:38:16.922Z,2.45
2022-10-18T03:39:28.377Z,2.00
2022-10-18T03:40:39.839Z,2.50
2022-10-18T03:41:51.330Z,2.13
2022-10-18T03:43:02.834Z,3.20
2022-10-18T03:44:14.272Z,3.15
2022-10-18T03:45:28.961Z,4.03
2022-10-18T03:46:42.810Z,4.05
2022-10-18T03:47:54.279Z,4.15
2022-10-18T03:49:05.761Z,6.65
2022-10-18T03:50:17.517Z,6.68
2022-10-18T03:51:28.937Z,5.75
2022-10-18T03:52:40.374Z,6.57
2022-10-18T03:53:51.812Z,7.15
2022-10-18T03:55:03.602Z,4.47
2022-10-18T03:56:15.072Z,5.18
2022-10-18T03:57:26.516Z,4.40
2022-10-18T03:58:37.962Z,5.45
2022-10-18T03:59:49.417Z,5.05
2022-10-18T04:01:00.974Z,4.28
2022-10-18T04:02:12.464Z,5.20
2022-10-18T04:03:23.996Z,5.70
2022-10-18T04:04:35.471Z,5.50
2022-10-18T04:05:47.224Z,5.28
2022-10-18T04:06:58.716Z,6.07
2022-10-18T04:08:10.159Z,6.03
2022-10-18T04:09:21.630Z,6.43
2022-10-18T04:10:33.057Z,5.28
2022-10-18T04:11:44.514Z,6.30
2022-10-18T04:12:56.036Z,6.00
2022-10-18T04:14:07.588Z,5.10
2022-10-18T04:15:19.114Z,5.68
2022-10-18T04:16:30.587Z,4.20
2022-10-18T04:17:42.108Z,5.50
2022-10-18T04:18:53.594Z,5.25
2022-10-18T04:20:05.318Z,4.93
2022-10-18T04:21:16.824Z,3.85
2022-10-18T04:22:28.328Z,3.95
2022-10-18T04:23:39.778Z,5.05
2022-10-18T04:24:53.366Z,4.53
2022-10-18T04:26:04.877Z,6.43
2022-10-18T04:27:16.303Z,4.55
2022-10-18T04:28:27.825Z,5.20
2022-10-18T04:29:39.337Z,4.03
2022-10-18T04:30:51.437Z,3.90
2022-10-18T04:32:03.119Z,4.72
2022-10-18T04:33:14.589Z,4.63
2022-10-18T04:34:26.314Z,5.68
2022-10-18T04:35:37.795Z,5.20
2022-10-18T04:36:49.258Z,5.18
2022-10-18T04:38:00.762Z,4.68
2022-10-18T04:39:12.220Z,5.38
2022-10-18T04:40:23.684Z,3.97
2022-10-18T04:41:35.223Z,10.80
2022-10-18T04:42:47.129Z,4.63
2022-10-18T04:43:58.596Z,6.22
2022-10-18T04:45:10.304Z,5.35
2022-10-18T04:46:21.780Z,3.55
2022-10-18T04:47:33.622Z,3.95
2022-10-18T04:48:45.334Z,4.30
2022-10-18T04:49:56.795Z,5.18
2022-10-18T04:51:08.306Z,4.13
2022-10-18T04:52:20.257Z,5.20
2022-10-18T04:53:31.836Z,5.53
2022-10-18T04:54:43.262Z,4.82
2022-10-18T04:55:54.735Z,5.47
2022-10-18T04:57:06.509Z,4.75
2022-10-18T04:58:18.298Z,5.13
2022-10-18T04:59:29.731Z,5.13
2022-10-18T05:00:41.386Z,5.10
2022-10-18T05:01:53.010Z,5.32
2022-10-18T05:03:04.546Z,6.53
2022-10-18T05:04:16.011Z,5.50
2022-10-18T05:05:49.932Z,5.03
2022-10-18T05:06:59.120Z,4.25
2022-10-18T05:08:10.615Z,4.72
2022-10-18T05:09:24.712Z,5.90
2022-10-18T05:10:36.163Z,5.65
2022-10-18T05:11:47.662Z,5.13
2022-10-18T05:12:59.219Z,5.90
2022-10-18T05:14:10.888Z,5.85
2022-10-18T05:15:22.313Z,5.00
2022-10-18T05:16:33.840Z,4.55
2022-10-18T05:17:45.306Z,5.47
2022-10-18T05:18:56.778Z,6.32
2022-10-18T05:20:08.504Z,6.53
2022-10-18T05:21:20.015Z,6.22
2022-10-18T05:22:31.777Z,5.75
2022-10-18T05:23:43.396Z,6.28
2022-10-18T05:24:54.851Z,5.18
2022-10-18T05:26:06.838Z,4.70
2022-10-18T05:27:18.309Z,5.13
2022-10-18T05:28:45.397Z,2.60
2022-10-18T05:29:58.901Z,3.72
2022-10-18T05:31:12.832Z,2.97
2022-10-18T05:32:24.265Z,2.90
2022-10-18T05:33:36.186Z,2.58
2022-10-18T05:34:47.667Z,3.13
2022-10-18T05:35:59.219Z,3.08
2022-10-18T05:37:11.173Z,2.65
2022-10-18T05:38:22.865Z,3.80
2022-10-18T05:39:34.370Z,3.10
2022-10-18T05:40:45.944Z,4.30
2022-10-18T05:41:58.177Z,3.17
2022-10-18T05:43:09.627Z,3.47
2022-10-18T05:44:21.117Z,4.18
2022-10-18T05:45:32.553Z,4.28
2022-10-18T05:46:44.001Z,3.92
2022-10-18T05:47:55.467Z,3.08
2022-10-18T05:49:06.888Z,3.72
2022-10-18T05:50:18.320Z,3.10
2022-10-18T05:51:29.754Z,3.42
2022-10-18T05:52:41.191Z,4.25
2022-10-18T05:53:53.206Z,3.38
2022-10-18T05:55:04.842Z,2.58
2022-10-18T05:56:16.546Z,2.70
2022-10-18T05:57:28.081Z,3.22
2022-10-18T06:22:24.364Z,6.45
2022-10-18T06:23:35.803Z,6.55
2022-10-18T06:24:47.352Z,4.93
2022-10-18T06:25:59.900Z,5.80
2022-10-18T06:27:11.384Z,5.68
2022-10-18T06:28:22.831Z,4.78
2022-10-18T06:29:35.176Z,4.57
2022-10-18T06:30:46.644Z,4.65
2022-10-18T06:31:58.112Z,4.13
2022-10-18T06:33:11.978Z,3.85
2022-10-18T06:34:23.413Z,4.55
2022-10-18T06:35:34.874Z,4.40
2022-10-18T06:36:46.335Z,4.50
2022-10-18T06:37:57.907Z,5.03
2022-10-18T06:39:09.761Z,4.80
2022-10-18T06:40:21.357Z,5.10
2022-10-18T06:41:32.798Z,4.30
2022-10-18T06:42:50.919Z,5.35
2022-10-18T06:44:14.765Z,4.50
2022-10-18T06:45:26.214Z,7.53
2022-10-18T06:46:37.646Z,6.53
2022-10-18T06:47:49.099Z,4.97
2022-10-18T06:49:00.534Z,5.32
2022-10-18T06:50:13.099Z,5.18
2022-10-18T06:51:24.549Z,13.90
2022-10-18T06:52:35.965Z,11.35
2022-10-18T06:53:59.691Z,16.17
2022-10-18T06:55:18.909Z,15.77
2022-10-18T06:56:30.471Z,15.30
2022-10-18T06:57:41.909Z,14.05
2022-10-18T06:58:53.465Z,11.23
2022-10-18T07:00:05.560Z,7.43
2022-10-18T07:01:17.837Z,7.10
2022-10-18T07:02:29.791Z,4.50
2022-10-18T07:03:41.758Z,4.80
2022-10-18T07:04:53.484Z,5.90
2022-10-18T07:06:06.119Z,6.07
2022-10-18T07:07:17.550Z,5.40
2022-10-18T07:08:29.099Z,5.32
2022-10-18T07:09:40.908Z,5.25
2022-10-18T07:10:55.802Z,4.95
2022-10-18T07:12:07.241Z,4.63
2022-10-18T07:13:31.915Z,4.75
2022-10-18T07:14:45.726Z,5.00
2022-10-18T07:16:00.811Z,4.20
2022-10-18T07:17:14.192Z,4.65
2022-10-18T07:18:25.630Z,4.13
2022-10-18T07:19:37.049Z,8.35
2022-10-18T07:20:48.504Z,4.97
2022-10-18T07:22:00.019Z,7.40
2022-10-18T07:23:11.785Z,28.10
2022-10-18T07:24:23.262Z,13.02
2022-10-18T07:25:35.180Z,11.63
2022-10-18T07:26:46.904Z,4.13
2022-10-18T07:27:58.355Z,20.55
2022-10-18T07:29:10.850Z,13.48
2022-10-18T07:30:24.696Z,3.67
2022-10-18T07:31:36.412Z,3.58
2022-10-18T07:32:47.869Z,4.22
2022-10-18T07:33:59.413Z,4.28
2022-10-18T07:36:24.565Z,3.72
2022-10-18T07:37:36.334Z,3.83
2022-10-18T07:38:48.560Z,3.83
2022-10-18T07:39:59.986Z,3.78
2022-10-18T07:41:13.009Z,3.55
2022-10-18T07:42:25.020Z,4.53
2022-10-18T07:43:37.016Z,3.78
2022-10-18T07:44:48.481Z,3.38
2022-10-18T07:46:01.652Z,3.63
2022-10-18T07:47:13.082Z,3.65
2022-10-18T07:48:24.998Z,3.40
2022-10-18T07:49:38.743Z,4.60
2022-10-18T07:50:50.202Z,5.18
2022-10-18T07:52:01.692Z,5.47
2022-10-18T07:53:13.176Z,9.20
2022-10-18T07:54:24.592Z,15.18
2022-10-18T07:55:36.023Z,7.10
2022-10-18T07:56:47.520Z,4.15
2022-10-18T07:58:00.215Z,3.38
2022-10-18T07:59:12.217Z,3.00
2022-10-18T08:00:23.666Z,4.47
2022-10-18T08:01:35.186Z,3.35
2022-10-18T08:02:46.674Z,2.97
2022-10-18T08:04:06.918Z,3.35
2022-10-18T08:05:19.357Z,3.60
2022-10-18T08:06:31.153Z,3.45
2022-10-18T08:07:42.731Z,3.20
2022-10-18T08:08:54.235Z,4.03
2022-10-18T08:10:05.958Z,3.70
2022-10-18T08:11:18.777Z,3.40
2022-10-18T08:12:30.223Z,4.63
2022-10-18T08:13:45.055Z,4.18
2022-10-18T08:14:56.480Z,3.13
2022-10-18T08:16:09.613Z,3.08
2022-10-18T08:17:21.073Z,3.00
2022-10-18T08:18:32.669Z,3.13
2022-10-18T08:19:52.895Z,2.83
2022-10-18T08:21:16.342Z,3.65
2022-10-18T08:22:27.811Z,3.22
2022-10-18T08:23:39.553Z,3.80
2022-10-18T08:24:50.967Z,3.92
2022-10-18T08:26:03.318Z,2.35
2022-10-18T08:27:15.065Z,2.97
2022-10-18T08:28:28.834Z,3.78
2022-10-18T08:29:43.359Z,5.28
2022-10-18T08:30:54.855Z,3.20
2022-10-18T08:32:07.830Z,4.03
2022-10-18T08:33:19.429Z,3.97
2022-10-18T08:34:30.931Z,3.22
2022-10-18T08:35:42.431Z,3.13
2022-10-18T08:36:53.872Z,2.67
2022-10-18T08:38:05.444Z,2.70
2022-10-18T08:39:19.081Z,2.45
2022-10-18T08:40:42.495Z,2.67
2022-10-18T08:42:09.248Z,2.90
2022-10-18T08:43:33.988Z,3.15
2022-10-18T08:44:48.398Z,2.25
2022-10-18T08:46:00.495Z,3.28
2022-10-18T08:47:16.143Z,2.50
2022-10-18T08:48:32.518Z,2.83
2022-10-18T08:49:47.524Z,2.88
2022-10-18T08:51:00.019Z,2.03
2022-10-18T08:52:33.839Z,2.47
2022-10-18T08:54:04.194Z,2.35
2022-10-18T08:55:23.844Z,2.50
2022-10-18T08:56:35.701Z,1.90
2022-10-18T08:57:47.670Z,2.80
2022-10-18T08:59:01.546Z,2.10
2022-10-18T09:00:17.223Z,2.80
2022-10-18T09:01:31.544Z,2.60
2022-10-18T09:02:48.884Z,2.17
2022-10-18T09:04:06.119Z,2.05
2022-10-18T09:05:22.842Z,2.60
2022-10-18T09:06:37.032Z,2.55
2022-10-18T09:08:11.336Z,2.63
2022-10-18T09:09:50.751Z,2.47
2022-10-18T09:11:23.923Z,2.33
2022-10-18T09:12:36.157Z,2.22
2022-10-18T09:14:06.995Z,1.88
2022-10-18T09:15:24.311Z,2.22
2022-10-18T09:16:54.647Z,1.73
2022-10-18T09:18:26.441Z,2.50
2022-10-18T09:19:43.957Z,2.00
2022-10-18T09:20:58.400Z,2.75
2022-10-18T09:22:19.331Z,2.03
2022-10-18T09:23:30.790Z,1.60
2022-10-18T09:24:48.271Z,2.40
2022-10-18T09:26:10.333Z,2.10
2022-10-18T09:27:27.635Z,2.07
2022-10-18T09:28:42.143Z,2.00
2022-10-18T09:29:56.419Z,1.70
2022-10-18T09:31:31.217Z,2.07
2022-10-18T09:32:54.827Z,2.10
2022-10-18T09:34:14.208Z,1.87
2022-10-18T09:35:29.031Z,2.00
2022-10-18T09:36:43.534Z,1.97
2022-10-18T09:38:00.976Z,2.57
2022-10-18T09:39:14.629Z,1.83
2022-10-18T09:40:32.246Z,1.83
2022-10-18T09:41:46.775Z,1.70
2022-10-18T09:43:00.633Z,1.80
2022-10-18T09:44:12.073Z,1.60
2022-10-18T09:45:31.469Z,1.83
2022-10-18T09:46:45.857Z,1.70
2022-10-18T09:48:06.416Z,1.67
2022-10-18T09:49:26.572Z,1.97
2022-10-18T09:50:46.742Z,1.93
2022-10-18T09:52:00.098Z,2.03
2022-10-18T09:53:25.758Z,1.80
2022-10-18T09:54:57.498Z,2.37
2022-10-18T09:56:11.122Z,1.70
2022-10-18T09:57:34.138Z,1.63
2022-10-18T09:58:47.274Z,1.30
2022-10-18T10:00:00.398Z,1.50
2022-10-18T10:01:14.143Z,1.80
2022-10-18T10:02:27.845Z,1.73
2022-10-18T10:03:39.650Z,1.60
2022-10-18T10:04:51.850Z,1.30
2022-10-18T10:06:12.472Z,2.20
2022-10-18T10:07:28.639Z,1.60
2022-10-18T10:09:02.901Z,1.50
2022-10-18T10:10:16.752Z,1.60
2022-10-18T10:11:29.433Z,1.50
2022-10-18T10:12:41.226Z,2.13
2022-10-18T10:13:56.973Z,1.53
2022-10-18T10:15:22.813Z,1.40
2022-10-18T10:16:42.394Z,1.83
2022-10-18T10:17:55.281Z,1.33
2022-10-18T10:19:16.354Z,1.70
2022-10-18T10:20:34.140Z,1.60
2022-10-18T10:21:47.410Z,1.50
2022-10-18T10:23:06.274Z,1.40
2022-10-18T10:24:26.138Z,1.30
2022-10-18T10:25:41.103Z,1.67
2022-10-18T10:27:01.489Z,1.83
2022-10-18T10:28:15.206Z,1.90
2022-10-18T10:29:47.341Z,2.57
2022-10-18T10:31:16.885Z,1.60
2022-10-18T10:32:30.123Z,1.47
2022-10-18T10:33:44.867Z,1.73
2022-10-18T10:34:56.674Z,1.37
2022-10-18T10:36:16.357Z,1.67
2022-10-18T10:37:30.213Z,1.70
2022-10-18T10:38:42.056Z,1.83
2022-10-18T10:40:25.263Z,1.70
2022-10-18T10:41:40.748Z,1.70
2022-10-18T10:43:00.055Z,1.50
2022-10-18T10:44:23.961Z,1.37
2022-10-18T10:45:40.171Z,1.70
2022-10-18T10:46:55.108Z,1.47
2022-10-18T10:48:16.808Z,1.80
2022-10-18T10:49:41.194Z,1.33
2022-10-18T10:51:11.579Z,1.50
2022-10-18T10:52:37.208Z,1.50
2022-10-18T10:53:52.447Z,1.43
2022-10-18T10:55:16.986Z,1.10
2022-10-18T10:56:38.714Z,1.60
2022-10-18T10:57:51.748Z,1.40
2022-10-18T10:59:13.368Z,1.50
2022-10-18T11:00:33.791Z,1.50
2022-10-18T11:01:47.755Z,2.33
2022-10-18T11:03:27.216Z,3.80
2022-10-18T11:04:38.656Z,1.97
2022-10-18T11:05:55.480Z,1.23
2022-10-18T11:07:13.028Z,1.50
2022-10-18T11:08:26.516Z,1.63
2022-10-18T11:10:01.029Z,5.87
2022-10-18T11:11:22.224Z,1.67
2022-10-18T11:12:34.977Z,1.63
2022-10-18T11:13:53.446Z,1.43
2022-10-18T11:15:13.374Z,1.30
2022-10-18T11:16:38.861Z,1.90
2022-10-18T11:17:56.071Z,1.53
2022-10-18T11:19:14.306Z,1.40
2022-10-18T11:20:32.434Z,1.20
2022-10-18T11:21:43.983Z,1.30
2022-10-18T11:23:01.410Z,1.13
2022-10-18T11:24:15.296Z,1.47
2022-10-18T11:25:36.043Z,1.03
2022-10-18T11:26:53.458Z,1.50
2022-10-18T11:28:28.084Z,1.27
2022-10-18T11:29:45.686Z,1.37
2022-10-18T11:31:03.357Z,1.17
2022-10-18T11:32:33.603Z,1.13
2022-10-18T11:34:10.351Z,1.20
2022-10-18T11:35:25.035Z,1.10
2022-10-18T11:36:54.722Z,1.00
2022-10-18T11:38:17.047Z,1.03
2022-10-18T11:39:34.261Z,1.30
2022-10-18T11:40:54.803Z,1.23
2022-10-18T11:42:25.078Z,1.07
2022-10-18T11:44:01.289Z,1.30
2022-10-18T11:45:22.990Z,1.60
2022-10-18T11:46:52.897Z,1.10
2022-10-18T11:48:07.372Z,1.27
2022-10-18T11:49:18.788Z,1.10
2022-10-18T11:50:49.127Z,1.40
2022-10-18T11:52:08.193Z,1.20
2022-10-18T11:53:51.028Z,1.10
2022-10-18T11:55:12.258Z,1.30
2022-10-18T11:56:32.883Z,1.30
2022-10-18T11:58:02.818Z,1.27
2022-10-18T11:59:25.151Z,1.20
2022-10-18T12:00:51.682Z,1.10
2022-10-18T12:02:21.027Z,1.23
2022-10-18T12:03:51.185Z,1.53
2022-10-18T12:06:36.549Z,1.13
2022-10-18T12:07:56.790Z,1.00
2022-10-18T12:09:17.245Z,1.10
2022-10-18T12:10:44.288Z,0.93
2022-10-18T12:12:06.508Z,1.47
2022-10-18T12:13:25.600Z,1.20
2022-10-18T12:14:40.437Z,1.23
2022-10-18T12:15:52.182Z,1.03
2022-10-18T12:17:39.885Z,1.07
2022-10-18T12:18:47.114Z,0.80
2022-10-18T12:20:04.979Z,1.00
2022-10-18T12:21:23.197Z,1.17
2022-10-18T12:22:41.849Z,1.03
2022-10-18T12:23:53.279Z,1.00
2022-10-18T12:25:08.580Z,1.00
2022-10-18T12:26:20.781Z,1.00
2022-10-18T12:27:42.185Z,1.20
2022-10-18T12:29:10.896Z,1.37
2022-10-18T12:30:22.413Z,1.30
2022-10-18T12:31:35.097Z,1.30
2022-10-18T12:33:02.200Z,2.03
2022-10-18T12:34:23.951Z,1.20
2022-10-18T12:35:41.696Z,1.23
2022-10-18T12:36:56.361Z,0.83
2022-10-18T12:38:07.937Z,1.37
2022-10-18T12:39:32.446Z,1.20
2022-10-18T12:40:55.520Z,0.83
2022-10-18T12:42:16.928Z,1.20
2022-10-18T12:43:36.825Z,1.00
2022-10-18T12:44:53.482Z,1.10
2022-10-18T12:46:10.757Z,0.90
2022-10-18T12:47:27.473Z,1.10
2022-10-18T12:48:42.560Z,1.07
2022-10-18T12:50:05.466Z,1.03
2022-10-18T12:51:18.584Z,0.93
2022-10-18T12:52:31.989Z,1.30
2022-10-18T12:53:46.027Z,0.97
2022-10-18T12:55:20.722Z,0.90
2022-10-18T12:56:34.220Z,0.77
2022-10-18T12:57:51.515Z,0.77
2022-10-18T12:59:15.065Z,1.17
2022-10-18T13:00:32.385Z,1.13
2022-10-18T13:01:53.111Z,1.10
2022-10-18T13:03:14.335Z,1.40
2022-10-18T13:04:28.725Z,2.87
2022-10-18T13:05:54.959Z,2.00
2022-10-18T13:07:10.412Z,1.43
2022-10-18T13:08:29.533Z,1.40
2022-10-18T13:09:45.111Z,0.80
2022-10-18T13:11:11.531Z,1.00
2022-10-18T13:12:23.047Z,0.70
2022-10-18T13:13:53.473Z,0.90
2022-10-18T13:15:25.338Z,1.23
2022-10-18T13:16:54.167Z,1.20
2022-10-18T13:18:14.715Z,0.90
2022-10-18T13:19:31.762Z,1.10
2022-10-18T13:20:48.814Z,1.00
2022-10-18T13:22:19.012Z,1.00
2022-10-18T13:23:38.127Z,1.77
2022-10-18T13:25:08.534Z,1.00
2022-10-18T13:26:32.133Z,0.83
2022-10-18T13:27:47.716Z,0.70
2022-10-18T13:29:18.923Z,0.67
2022-10-18T13:30:40.988Z,0.90
2022-10-18T13:31:59.472Z,1.50
2022-10-18T13:33:18.483Z,0.93
2022-10-18T13:34:38.954Z,1.03
2022-10-18T13:35:54.882Z,0.90
2022-10-18T13:37:18.776Z,0.87
2022-10-18T13:38:32.990Z,2.23
2022-10-18T13:39:44.962Z,2.60
2022-10-18T13:41:00.702Z,1.93
2022-10-18T13:42:15.435Z,1.40
2022-10-18T13:43:48.953Z,2.50
2022-10-18T13:45:21.991Z,2.50
2022-10-18T13:46:33.528Z,2.77
2022-10-18T13:47:44.993Z,2.70
2022-10-18T13:49:00.487Z,2.10
2022-10-18T13:50:16.734Z,2.00
2022-10-18T13:51:28.465Z,1.80
2022-10-18T13:52:58.782Z,2.30
2022-10-18T13:54:29.007Z,1.80
2022-10-18T13:55:46.420Z,1.80
2022-10-18T13:57:00.698Z,1.83
2022-10-18T13:58:20.956Z,1.70
2022-10-18T14:00:52.417Z,2.00
2022-10-18T14:02:04.775Z,1.70
2022-10-18T14:03:56.352Z,2.30
2022-10-18T14:05:24.499Z,2.20
2022-10-18T14:06:40.486Z,2.00
2022-10-18T14:07:53.666Z,1.77
2022-10-18T14:09:26.016Z,1.23
2022-10-18T14:11:02.304Z,1.03
2022-10-18T14:12:20.730Z,1.00
2022-10-18T14:13:58.736Z,1.43
2022-10-18T14:15:10.673Z,0.73
2022-10-18T14:16:31.335Z,0.97
2022-10-18T14:17:46.453Z,0.83
2022-10-18T14:19:18.217Z,1.07
2022-10-18T14:20:55.348Z,1.03
2022-10-18T14:22:24.015Z,1.30
2022-10-18T14:23:37.027Z,0.70
2022-10-18T14:24:55.647Z,1.10
2022-10-18T14:26:08.627Z,0.90
2022-10-18T14:27:24.327Z,1.13
2022-10-18T14:28:55.021Z,1.97
2022-10-18T14:30:13.343Z,1.00
2022-10-18T14:31:26.727Z,1.00
2022-10-18T14:32:42.704Z,1.17
2022-10-18T14:33:58.005Z,1.43
2022-10-18T14:35:33.476Z,2.10
2022-10-18T14:36:47.948Z,2.27
2022-10-18T14:37:59.527Z,1.63
2022-10-18T14:39:26.718Z,1.33
2022-10-18T14:40:39.284Z,1.00
2022-10-18T14:41:52.327Z,0.90
2022-10-18T14:43:14.519Z,0.90
2022-10-18T14:44:27.672Z,1.23
2022-10-18T14:45:39.773Z,1.10
2022-10-18T14:46:53.338Z,1.10
2022-10-18T14:48:05.723Z,1.00
2022-10-18T14:49:18.006Z,1.03
2022-10-18T14:50:30.944Z,0.70
2022-10-18T14:51:44.975Z,0.83
2022-10-18T14:52:56.756Z,1.00
2022-10-18T14:55:29.025Z,0.70
2022-10-18T14:56:42.018Z,0.80
2022-10-18T14:57:56.239Z,0.80
2022-10-18T14:59:14.236Z,0.93
2022-10-18T15:00:46.321Z,0.80
2022-10-18T15:02:18.061Z,1.03
2022-10-18T15:03:32.303Z,1.00
2022-10-18T15:04:45.134Z,1.07
2022-10-18T15:05:56.857Z,0.67
2022-10-18T15:07:14.025Z,0.77
2022-10-18T15:08:33.221Z,1.03
2022-10-18T15:09:45.557Z,1.13
2022-10-18T15:10:57.348Z,1.87
2022-10-18T15:12:12.114Z,3.57
2022-10-18T15:13:25.410Z,4.23
2022-10-18T15:14:41.029Z,5.73
2022-10-18T15:15:53.314Z,31.60
2022-10-18T15:17:07.829Z,24.87
2022-10-18T15:18:21.193Z,14.13
2022-10-18T15:19:37.081Z,7.13
2022-10-18T15:21:07.228Z,3.67
2022-10-18T15:22:37.970Z,3.00
2022-10-18T15:23:50.397Z,2.13
2022-10-18T15:25:04.962Z,1.70
2022-10-18T15:26:27.526Z,1.90
2022-10-18T15:27:39.704Z,1.83
2022-10-18T15:28:53.811Z,2.00
2022-10-18T15:30:10.476Z,6.53
2022-10-18T15:31:23.459Z,10.27
2022-10-18T15:32:35.378Z,11.47
2022-10-18T15:33:47.257Z,10.73
2022-10-18T15:35:19.166Z,8.20
2022-10-18T15:36:33.114Z,4.73
2022-10-18T15:37:46.323Z,4.73
2022-10-18T15:39:04.853Z,3.30
2022-10-18T15:40:22.772Z,2.83
2022-10-18T15:41:39.195Z,2.27
2022-10-18T15:42:52.418Z,2.93
2022-10-18T15:44:11.568Z,5.57
2022-10-18T15:45:25.454Z,4.23
2022-10-18T15:46:39.028Z,6.47
2022-10-18T15:48:13.040Z,7.27
2022-10-18T15:49:24.505Z,7.10
2022-10-18T15:50:44.871Z,6.70
2022-10-18T15:52:16.329Z,8.13
2022-10-18T15:53:33.058Z,19.87
2022-10-18T15:54:44.699Z,21.70
2022-10-18T15:55:59.175Z,6.03
2022-10-18T15:57:10.744Z,6.37
2022-10-18T15:58:42.303Z,4.07
2022-10-18T15:59:58.054Z,5.10
2022-10-18T16:01:15.416Z,2.70
2022-10-18T16:02:26.958Z,2.10
2022-10-18T16:03:39.543Z,2.63
2022-10-18T16:04:51.023Z,2.10
2022-10-18T16:06:07.015Z,2.10
2022-10-18T16:07:18.478Z,2.10
2022-10-18T16:08:37.210Z,2.40
2022-10-18T16:09:48.743Z,2.20
2022-10-18T16:11:00.361Z,4.23
2022-10-18T16:12:11.930Z,6.47
2022-10-18T16:13:23.446Z,5.57
2022-10-18T16:14:36.190Z,4.03
2022-10-18T16:15:47.917Z,8.20
2022-10-18T16:17:03.432Z,8.10
2022-10-18T16:18:16.484Z,8.03
2022-10-18T16:19:28.116Z,9.43
2022-10-18T16:20:39.619Z,10.33
2022-10-18T16:21:51.838Z,12.63
2022-10-18T16:23:06.125Z,11.07
2022-10-18T16:24:17.982Z,16.23
2022-10-18T16:25:29.456Z,21.93
2022-10-18T16:26:59.485Z,19.87
2022-10-18T16:28:13.777Z,17.03
2022-10-18T16:29:27.392Z,18.40
2022-10-18T16:30:39.867Z,18.60
2022-10-18T16:31:53.539Z,17.63
2022-10-18T16:33:05.093Z,19.00
2022-10-18T16:34:17.245Z,12.00
2022-10-18T16:35:29.984Z,13.00
2022-10-18T16:36:41.524Z,13.87
2022-10-18T16:37:55.343Z,6.33
2022-10-18T16:39:07.894Z,5.20
2022-10-18T16:40:28.416Z,9.80
2022-10-18T16:41:40.027Z,8.37
2022-10-18T16:42:51.972Z,8.50
2022-10-18T16:44:03.728Z,4.10
2022-10-18T16:45:15.395Z,16.13
2022-10-18T16:46:28.255Z,22.20
2022-10-18T16:47:39.707Z,31.37
2022-10-18T16:48:51.556Z,23.87
2022-10-18T16:50:08.053Z,17.03
2022-10-18T16:51:19.943Z,16.67
2022-10-18T16:52:31.861Z,15.75
2022-10-18T16:53:44.003Z,6.85
2022-10-18T16:54:55.480Z,7.85
2022-10-18T16:56:11.697Z,9.30
2022-10-18T16:57:23.361Z,44.08
2022-10-18T16:58:35.240Z,29.08
2022-10-18T16:59:46.944Z,13.32
2022-10-18T17:00:59.822Z,9.05
2022-10-18T17:02:12.594Z,10.05
2022-10-18T17:03:24.660Z,9.05
2022-10-18T17:04:36.410Z,12.05
2022-10-18T17:05:48.044Z,14.32
2022-10-18T17:06:59.705Z,13.60
2022-10-18T17:08:24.284Z,13.15
2022-10-18T17:09:37.350Z,13.93
2022-10-18T17:10:50.186Z,11.02
2022-10-18T17:12:01.866Z,12.93
2022-10-18T17:13:13.785Z,10.27
2022-10-18T17:14:25.481Z,9.55